FDX444 KAFW-KEWR
Flight info
| Callsign | FDX444 |
|---|---|
| Flight time | 2h 59m |
| Altitude | 33000 |
| Route | KUSSO1 LOOSE MEMFS Q29 DORET J584 SLT FQM3 |
| Aircraft | A306/H-SDE3FGHIRWY/LB1 |
Departure
| Time | 2026-04-25 08:47 |
|---|---|
| Airport | Perot Field/Fort Worth Alliance Airport (KAFW) |
Arrival
| Time | 2026-04-25 11:46 |
|---|---|
| Airport | Newark Liberty International Airport (KEWR) |
| Time | Latitude | Longitude | Altitude | Speed | Heading |
|---|---|---|---|---|---|
| 2026-04-25 08:37 | 32.97684 | -97.31963 | 676 ft | 0 kts | 350° |
| 2026-04-25 08:43 | 32.97685 | -97.31963 | 676 ft | 0 kts | 351° |
| 2026-04-25 08:44 | 32.97690 | -97.31962 | 676 ft | 1 kts | 19° |
| 2026-04-25 08:44 | 32.97699 | -97.31947 | 676 ft | 0 kts | 65° |
| 2026-04-25 08:44 | 32.97699 | -97.31946 | 676 ft | 0 kts | 73° |
| 2026-04-25 08:44 | 32.97691 | -97.31928 | 676 ft | 4 kts | 137° |
| 2026-04-25 08:45 | 32.97678 | -97.31914 | 676 ft | 3 kts | 137° |
| 2026-04-25 08:45 | 32.97656 | -97.31892 | 675 ft | 0 kts | 141° |
| 2026-04-25 08:45 | 32.97646 | -97.31831 | 675 ft | 16 kts | 83° |
| 2026-04-25 08:45 | 32.97728 | -97.31777 | 676 ft | 12 kts | 351° |
| 2026-04-25 08:46 | 32.97921 | -97.31815 | 682 ft | 54 kts | 351° |
| 2026-04-25 08:46 | 32.98508 | -97.31925 | 699 ft | 116 kts | 351° |
| 2026-04-25 08:46 | 32.99490 | -97.32137 | 735 ft | 166 kts | 350° |
| 2026-04-25 08:46 | 33.00665 | -97.32373 | 1154 ft | 171 kts | 352° |
| 2026-04-25 08:47 | 33.01858 | -97.32488 | 1470 ft | 176 kts | 2° |
| 2026-04-25 08:47 | 33.03056 | -97.32215 | 1840 ft | 180 kts | 25° |
| 2026-04-25 08:47 | 33.04082 | -97.31261 | 2090 ft | 202 kts | 57° |
| 2026-04-25 08:47 | 33.04501 | -97.29588 | 2192 ft | 229 kts | 98° |
| 2026-04-25 08:48 | 33.03939 | -97.27758 | 2673 ft | 244 kts | 117° |
| 2026-04-25 08:48 | 33.03119 | -97.25919 | 3228 ft | 258 kts | 115° |
| 2026-04-25 08:48 | 33.02536 | -97.23893 | 4003 ft | 262 kts | 102° |
| 2026-04-25 08:48 | 33.02058 | -97.21818 | 4765 ft | 266 kts | 111° |
| 2026-04-25 08:49 | 33.01435 | -97.19733 | 5539 ft | 270 kts | 108° |
| 2026-04-25 08:49 | 33.00845 | -97.17595 | 6332 ft | 273 kts | 108° |
| 2026-04-25 08:49 | 33.00256 | -97.15469 | 7104 ft | 276 kts | 108° |
| 2026-04-25 08:49 | 32.99644 | -97.13284 | 7863 ft | 280 kts | 108° |
| 2026-04-25 08:50 | 32.99023 | -97.11086 | 8615 ft | 283 kts | 109° |
| 2026-04-25 08:50 | 32.98392 | -97.08858 | 9352 ft | 285 kts | 109° |
| 2026-04-25 08:50 | 32.97752 | -97.06613 | 10073 ft | 289 kts | 109° |
| 2026-04-25 08:50 | 32.97102 | -97.04333 | 10596 ft | 300 kts | 109° |
| 2026-04-25 08:51 | 32.96410 | -97.01907 | 10813 ft | 321 kts | 109° |
| 2026-04-25 08:51 | 32.95661 | -96.99288 | 11034 ft | 343 kts | 109° |
| 2026-04-25 08:51 | 32.94868 | -96.96517 | 11246 ft | 365 kts | 109° |
| 2026-04-25 08:51 | 32.94036 | -96.93613 | 11692 ft | 383 kts | 109° |
| 2026-04-25 08:52 | 32.93165 | -96.90575 | 12811 ft | 388 kts | 109° |
| 2026-04-25 08:52 | 32.92296 | -96.87549 | 13961 ft | 393 kts | 109° |
| 2026-04-25 08:52 | 32.91412 | -96.84474 | 14881 ft | 402 kts | 109° |
| 2026-04-25 08:52 | 32.90501 | -96.81305 | 15943 ft | 406 kts | 109° |
| 2026-04-25 08:53 | 32.89587 | -96.78134 | 16929 ft | 411 kts | 109° |
| 2026-04-25 08:53 | 32.88660 | -96.74916 | 17837 ft | 417 kts | 109° |
| 2026-04-25 08:53 | 32.87722 | -96.71667 | 18720 ft | 422 kts | 109° |
| 2026-04-25 08:53 | 32.86769 | -96.68368 | 19579 ft | 428 kts | 109° |
| 2026-04-25 08:54 | 32.85798 | -96.65012 | 20430 ft | 433 kts | 109° |
| 2026-04-25 08:54 | 32.84808 | -96.61595 | 21281 ft | 439 kts | 109° |
| 2026-04-25 08:54 | 32.83958 | -96.58123 | 22074 ft | 443 kts | 101° |
| 2026-04-25 08:54 | 32.83574 | -96.54518 | 22818 ft | 449 kts | 94° |
| 2026-04-25 08:55 | 32.83437 | -96.50777 | 23579 ft | 454 kts | 91° |
| 2026-04-25 08:55 | 32.83353 | -96.47040 | 24300 ft | 458 kts | 90° |
| 2026-04-25 08:55 | 32.83778 | -96.43258 | 24883 ft | 463 kts | 72° |
| 2026-04-25 08:55 | 32.85227 | -96.39844 | 25485 ft | 468 kts | 55° |
| 2026-04-25 08:56 | 32.87193 | -96.36820 | 26206 ft | 472 kts | 50° |
| 2026-04-25 08:56 | 32.89272 | -96.33775 | 26870 ft | 475 kts | 54° |
| 2026-04-25 08:56 | 32.90901 | -96.30374 | 27386 ft | 478 kts | 65° |
| 2026-04-25 08:56 | 32.92118 | -96.26709 | 27911 ft | 478 kts | 70° |
| 2026-04-25 08:57 | 32.93198 | -96.22974 | 28541 ft | 477 kts | 71° |
| 2026-04-25 08:57 | 32.94307 | -96.19246 | 28947 ft | 479 kts | 70° |
| 2026-04-25 08:57 | 32.95477 | -96.15537 | 29333 ft | 479 kts | 69° |
| 2026-04-25 08:57 | 32.96669 | -96.11877 | 29831 ft | 476 kts | 69° |
| 2026-04-25 08:58 | 32.97874 | -96.08195 | 30324 ft | 474 kts | 69° |
| 2026-04-25 08:58 | 32.99059 | -96.04557 | 30751 ft | 472 kts | 69° |
| 2026-04-25 08:58 | 33.00235 | -96.00919 | 31113 ft | 471 kts | 69° |
| 2026-04-25 08:58 | 33.01400 | -95.97301 | 31436 ft | 470 kts | 69° |
| 2026-04-25 08:59 | 33.02564 | -95.93682 | 31731 ft | 470 kts | 69° |
| 2026-04-25 08:59 | 33.03735 | -95.90041 | 32004 ft | 469 kts | 69° |
| 2026-04-25 08:59 | 33.04885 | -95.86462 | 32249 ft | 468 kts | 69° |
| 2026-04-25 08:59 | 33.06047 | -95.82827 | 32473 ft | 467 kts | 69° |
| 2026-04-25 09:00 | 33.07200 | -95.79211 | 32672 ft | 467 kts | 69° |
| 2026-04-25 09:00 | 33.08356 | -95.75595 | 32851 ft | 466 kts | 69° |
| 2026-04-25 09:00 | 33.09513 | -95.71989 | 32987 ft | 466 kts | 69° |
| 2026-04-25 09:01 | 33.11815 | -95.64816 | 33001 ft | 465 kts | 69° |
| 2026-04-25 09:01 | 33.14119 | -95.57613 | 33001 ft | 465 kts | 69° |
| 2026-04-25 09:02 | 33.16404 | -95.50449 | 33001 ft | 465 kts | 69° |
| 2026-04-25 09:02 | 33.18700 | -95.43237 | 33001 ft | 465 kts | 69° |
| 2026-04-25 09:03 | 33.20990 | -95.36025 | 33002 ft | 465 kts | 69° |
| 2026-04-25 09:03 | 33.23271 | -95.28825 | 33001 ft | 465 kts | 69° |
| 2026-04-25 09:04 | 33.25542 | -95.21642 | 33002 ft | 465 kts | 69° |
| 2026-04-25 09:04 | 33.27813 | -95.14438 | 33002 ft | 465 kts | 69° |
| 2026-04-25 09:05 | 33.30081 | -95.07230 | 33002 ft | 465 kts | 69° |
| 2026-04-25 09:05 | 33.32355 | -94.99985 | 33002 ft | 465 kts | 69° |
| 2026-04-25 09:06 | 33.34623 | -94.92741 | 33002 ft | 465 kts | 69° |
| 2026-04-25 09:06 | 33.36869 | -94.85551 | 33001 ft | 465 kts | 69° |
| 2026-04-25 09:07 | 33.39125 | -94.78313 | 33001 ft | 465 kts | 69° |
| 2026-04-25 09:07 | 33.41376 | -94.71074 | 33000 ft | 465 kts | 69° |
| 2026-04-25 09:08 | 33.43627 | -94.63814 | 33000 ft | 465 kts | 69° |
| 2026-04-25 09:08 | 33.45860 | -94.56599 | 32999 ft | 465 kts | 69° |
| 2026-04-25 09:09 | 33.48109 | -94.49311 | 32999 ft | 465 kts | 69° |
| 2026-04-25 09:09 | 33.50335 | -94.42084 | 32999 ft | 465 kts | 69° |
| 2026-04-25 09:10 | 33.52562 | -94.34835 | 32998 ft | 465 kts | 70° |
| 2026-04-25 09:10 | 33.54791 | -94.27557 | 32998 ft | 465 kts | 70° |
| 2026-04-25 09:11 | 33.58016 | -94.16572 | 33001 ft | 465 kts | 70° |
| 2026-04-25 09:11 | 33.60182 | -94.09306 | 33002 ft | 465 kts | 70° |
| 2026-04-25 09:12 | 33.62351 | -94.02031 | 33002 ft | 465 kts | 70° |
| 2026-04-25 09:12 | 33.64519 | -93.94725 | 33002 ft | 466 kts | 70° |
| 2026-04-25 09:13 | 33.66684 | -93.87409 | 33002 ft | 466 kts | 70° |
| 2026-04-25 09:13 | 33.68840 | -93.80109 | 33001 ft | 466 kts | 70° |
| 2026-04-25 09:14 | 33.71008 | -93.72752 | 33001 ft | 466 kts | 70° |
| 2026-04-25 09:14 | 33.73151 | -93.65458 | 33000 ft | 466 kts | 70° |
| 2026-04-25 09:15 | 33.75291 | -93.58157 | 33000 ft | 466 kts | 70° |
| 2026-04-25 09:15 | 33.77443 | -93.50794 | 32999 ft | 466 kts | 70° |
| 2026-04-25 09:16 | 33.79572 | -93.43495 | 32999 ft | 466 kts | 70° |
| 2026-04-25 09:16 | 33.81715 | -93.36128 | 32998 ft | 466 kts | 70° |
| 2026-04-25 09:17 | 33.84901 | -93.25140 | 33001 ft | 466 kts | 71° |
| 2026-04-25 09:18 | 33.87032 | -93.17770 | 33001 ft | 466 kts | 71° |
| 2026-04-25 09:18 | 33.89150 | -93.10422 | 33001 ft | 466 kts | 71° |
| 2026-04-25 09:19 | 33.91570 | -93.03251 | 33002 ft | 466 kts | 65° |
| 2026-04-25 09:19 | 33.94308 | -92.96160 | 33001 ft | 466 kts | 65° |
| 2026-04-25 09:20 | 33.96995 | -92.89082 | 33001 ft | 466 kts | 65° |
| 2026-04-25 09:20 | 33.99643 | -92.82022 | 33000 ft | 466 kts | 65° |
| 2026-04-25 09:21 | 34.02317 | -92.74892 | 32999 ft | 466 kts | 65° |
| 2026-04-25 09:21 | 34.04968 | -92.67813 | 32999 ft | 466 kts | 65° |
| 2026-04-25 09:22 | 34.07618 | -92.60719 | 32999 ft | 466 kts | 65° |
| 2026-04-25 09:22 | 34.10276 | -92.53587 | 32998 ft | 466 kts | 65° |
| 2026-04-25 09:23 | 34.12934 | -92.46440 | 32998 ft | 466 kts | 65° |
| 2026-04-25 09:23 | 34.15576 | -92.39323 | 32998 ft | 466 kts | 65° |
| 2026-04-25 09:24 | 34.18211 | -92.32207 | 32998 ft | 466 kts | 66° |
| 2026-04-25 09:24 | 34.20842 | -92.25086 | 32998 ft | 466 kts | 66° |
| 2026-04-25 09:25 | 34.23475 | -92.17945 | 32998 ft | 466 kts | 66° |
| 2026-04-25 09:25 | 34.26120 | -92.10754 | 32997 ft | 466 kts | 66° |
| 2026-04-25 09:26 | 34.28739 | -92.03621 | 32998 ft | 466 kts | 66° |
| 2026-04-25 09:26 | 34.31351 | -91.96489 | 32999 ft | 466 kts | 66° |
| 2026-04-25 09:27 | 34.33980 | -91.89296 | 33000 ft | 466 kts | 66° |
| 2026-04-25 09:27 | 34.36593 | -91.82130 | 33000 ft | 466 kts | 66° |
| 2026-04-25 09:28 | 34.39198 | -91.74970 | 33001 ft | 467 kts | 66° |
| 2026-04-25 09:28 | 34.41801 | -91.67799 | 33001 ft | 467 kts | 66° |
| 2026-04-25 09:29 | 34.44394 | -91.60641 | 33001 ft | 467 kts | 66° |
| 2026-04-25 09:29 | 34.47001 | -91.53427 | 33002 ft | 467 kts | 66° |
| 2026-04-25 09:30 | 34.49598 | -91.46227 | 33002 ft | 467 kts | 66° |
| 2026-04-25 09:30 | 34.52186 | -91.39033 | 33001 ft | 467 kts | 66° |
| 2026-04-25 09:31 | 34.54762 | -91.31859 | 33001 ft | 467 kts | 66° |
| 2026-04-25 09:31 | 34.57341 | -91.24658 | 33001 ft | 467 kts | 66° |
| 2026-04-25 09:32 | 34.59927 | -91.17422 | 33000 ft | 467 kts | 66° |
| 2026-04-25 09:32 | 34.62499 | -91.10207 | 33000 ft | 467 kts | 66° |
| 2026-04-25 09:33 | 34.65057 | -91.03017 | 32999 ft | 467 kts | 66° |
| 2026-04-25 09:33 | 34.67621 | -90.95795 | 32999 ft | 467 kts | 66° |
| 2026-04-25 09:34 | 34.70185 | -90.88553 | 32999 ft | 467 kts | 66° |
| 2026-04-25 09:34 | 34.72747 | -90.81300 | 32998 ft | 467 kts | 66° |
| 2026-04-25 09:35 | 34.75290 | -90.74087 | 32998 ft | 467 kts | 66° |
| 2026-04-25 09:35 | 34.77835 | -90.66853 | 32998 ft | 467 kts | 66° |
| 2026-04-25 09:36 | 34.80392 | -90.59565 | 32997 ft | 467 kts | 66° |
| 2026-04-25 09:36 | 34.82930 | -90.52316 | 32997 ft | 467 kts | 66° |
| 2026-04-25 09:37 | 34.85453 | -90.45091 | 32997 ft | 467 kts | 66° |
| 2026-04-25 09:37 | 34.87984 | -90.37828 | 32997 ft | 467 kts | 66° |
| 2026-04-25 09:38 | 34.90512 | -90.30557 | 32998 ft | 467 kts | 67° |
| 2026-04-25 09:38 | 34.93043 | -90.23261 | 32998 ft | 467 kts | 67° |
| 2026-04-25 09:39 | 34.95564 | -90.15975 | 32998 ft | 467 kts | 67° |
| 2026-04-25 09:39 | 34.98068 | -90.08721 | 32998 ft | 467 kts | 67° |
| 2026-04-25 09:40 | 35.02128 | -89.97978 | 33001 ft | 464 kts | 51° |
| 2026-04-25 09:40 | 35.04404 | -89.95242 | 33026 ft | 462 kts | 38° |
| 2026-04-25 09:40 | 35.07054 | -89.92956 | 33022 ft | 464 kts | 33° |
| 2026-04-25 09:41 | 35.12404 | -89.88578 | 32997 ft | 466 kts | 35° |
| 2026-04-25 09:41 | 35.17622 | -89.83922 | 32998 ft | 467 kts | 36° |
| 2026-04-25 09:42 | 35.22837 | -89.79205 | 33005 ft | 467 kts | 36° |
| 2026-04-25 09:42 | 35.28054 | -89.74515 | 33002 ft | 467 kts | 36° |
| 2026-04-25 09:43 | 35.33258 | -89.69830 | 33001 ft | 467 kts | 36° |
| 2026-04-25 09:43 | 35.38503 | -89.65099 | 33002 ft | 467 kts | 36° |
| 2026-04-25 09:44 | 35.43700 | -89.60403 | 33001 ft | 467 kts | 36° |
| 2026-04-25 09:44 | 35.48918 | -89.55679 | 33001 ft | 467 kts | 36° |
| 2026-04-25 09:45 | 35.54122 | -89.50960 | 33002 ft | 468 kts | 36° |
| 2026-04-25 09:45 | 35.59360 | -89.46205 | 33002 ft | 468 kts | 36° |
| 2026-04-25 09:46 | 35.64542 | -89.41492 | 33002 ft | 468 kts | 36° |
| 2026-04-25 09:46 | 35.69778 | -89.36721 | 33002 ft | 468 kts | 36° |
| 2026-04-25 09:47 | 35.74998 | -89.31956 | 33001 ft | 468 kts | 37° |
| 2026-04-25 09:47 | 35.80184 | -89.27216 | 33001 ft | 468 kts | 37° |
| 2026-04-25 09:48 | 35.85407 | -89.22433 | 33001 ft | 468 kts | 37° |
| 2026-04-25 09:48 | 35.90595 | -89.17675 | 33001 ft | 468 kts | 37° |
| 2026-04-25 09:49 | 35.95785 | -89.12907 | 33001 ft | 468 kts | 37° |
| 2026-04-25 09:49 | 36.01014 | -89.08094 | 33001 ft | 468 kts | 37° |
| 2026-04-25 09:50 | 36.06199 | -89.03315 | 33001 ft | 468 kts | 37° |
| 2026-04-25 09:50 | 36.11417 | -88.98496 | 33001 ft | 468 kts | 37° |
| 2026-04-25 09:51 | 36.16578 | -88.93669 | 33000 ft | 468 kts | 37° |
| 2026-04-25 09:51 | 36.21765 | -88.88840 | 33000 ft | 468 kts | 37° |
| 2026-04-25 09:52 | 36.26956 | -88.84026 | 33000 ft | 468 kts | 37° |
| 2026-04-25 09:52 | 36.32172 | -88.79176 | 33000 ft | 468 kts | 37° |
| 2026-04-25 09:53 | 36.37331 | -88.74371 | 33000 ft | 468 kts | 37° |
| 2026-04-25 09:53 | 36.42552 | -88.69498 | 33000 ft | 468 kts | 37° |
| 2026-04-25 09:54 | 36.47731 | -88.64657 | 33001 ft | 468 kts | 37° |
| 2026-04-25 09:54 | 36.52905 | -88.59812 | 33001 ft | 468 kts | 37° |
| 2026-04-25 09:55 | 36.58064 | -88.54973 | 33001 ft | 468 kts | 37° |
| 2026-04-25 09:55 | 36.63245 | -88.50105 | 33001 ft | 468 kts | 37° |
| 2026-04-25 09:56 | 36.68431 | -88.45224 | 33000 ft | 468 kts | 37° |
| 2026-04-25 09:56 | 36.73633 | -88.40319 | 33000 ft | 468 kts | 37° |
| 2026-04-25 09:57 | 36.78809 | -88.35431 | 33000 ft | 468 kts | 37° |
| 2026-04-25 09:57 | 36.83961 | -88.30557 | 33000 ft | 468 kts | 37° |
| 2026-04-25 09:58 | 36.89128 | -88.25659 | 32999 ft | 468 kts | 37° |
| 2026-04-25 09:58 | 36.94329 | -88.20721 | 32998 ft | 468 kts | 37° |
| 2026-04-25 09:59 | 36.99498 | -88.15805 | 32997 ft | 468 kts | 37° |
| 2026-04-25 09:59 | 37.04651 | -88.10895 | 32997 ft | 469 kts | 37° |
| 2026-04-25 10:00 | 37.09820 | -88.05962 | 32997 ft | 469 kts | 37° |
| 2026-04-25 10:00 | 37.15002 | -88.01007 | 32997 ft | 469 kts | 37° |
| 2026-04-25 10:01 | 37.20137 | -87.96088 | 32995 ft | 469 kts | 37° |
| 2026-04-25 10:01 | 37.25304 | -87.91131 | 33002 ft | 469 kts | 37° |
| 2026-04-25 10:02 | 37.30483 | -87.86153 | 33002 ft | 469 kts | 37° |
| 2026-04-25 10:02 | 37.35408 | -87.80891 | 33003 ft | 468 kts | 45° |
| 2026-04-25 10:03 | 37.39883 | -87.74950 | 33000 ft | 468 kts | 46° |
| 2026-04-25 10:03 | 37.44394 | -87.69035 | 32999 ft | 469 kts | 45° |
| 2026-04-25 10:04 | 37.48913 | -87.63206 | 32999 ft | 469 kts | 45° |
| 2026-04-25 10:04 | 37.53461 | -87.57314 | 32999 ft | 469 kts | 45° |
| 2026-04-25 10:05 | 37.57964 | -87.51463 | 32999 ft | 469 kts | 45° |
| 2026-04-25 10:05 | 37.62496 | -87.45564 | 32999 ft | 469 kts | 45° |
| 2026-04-25 10:06 | 37.67031 | -87.39651 | 33000 ft | 469 kts | 45° |
| 2026-04-25 10:06 | 37.71526 | -87.33779 | 33000 ft | 469 kts | 46° |
| 2026-04-25 10:07 | 37.76064 | -87.27839 | 32999 ft | 469 kts | 46° |
| 2026-04-25 10:07 | 37.80551 | -87.21954 | 32999 ft | 469 kts | 46° |
| 2026-04-25 10:08 | 37.85063 | -87.16027 | 32999 ft | 469 kts | 46° |
| 2026-04-25 10:08 | 37.89582 | -87.10079 | 32998 ft | 469 kts | 46° |
| 2026-04-25 10:09 | 37.94099 | -87.04123 | 32998 ft | 469 kts | 46° |
| 2026-04-25 10:09 | 37.98603 | -86.98171 | 32998 ft | 469 kts | 46° |
| 2026-04-25 10:10 | 38.03089 | -86.92234 | 32999 ft | 469 kts | 46° |
| 2026-04-25 10:10 | 38.07601 | -86.86249 | 32999 ft | 469 kts | 46° |
| 2026-04-25 10:11 | 38.12096 | -86.80278 | 32998 ft | 469 kts | 46° |
| 2026-04-25 10:11 | 38.16584 | -86.74303 | 32998 ft | 469 kts | 46° |
| 2026-04-25 10:12 | 38.21086 | -86.68298 | 32998 ft | 469 kts | 46° |
| 2026-04-25 10:13 | 38.27787 | -86.59339 | 33001 ft | 469 kts | 46° |
| 2026-04-25 10:13 | 38.32287 | -86.53308 | 33001 ft | 469 kts | 46° |
| 2026-04-25 10:14 | 38.36774 | -86.47282 | 33001 ft | 469 kts | 46° |
| 2026-04-25 10:14 | 38.41239 | -86.41275 | 33001 ft | 469 kts | 46° |
| 2026-04-25 10:15 | 38.45719 | -86.35237 | 33001 ft | 469 kts | 46° |
| 2026-04-25 10:15 | 38.50195 | -86.29191 | 33002 ft | 469 kts | 47° |
| 2026-04-25 10:16 | 38.54646 | -86.23168 | 33002 ft | 469 kts | 47° |
| 2026-04-25 10:16 | 38.59134 | -86.17084 | 33002 ft | 469 kts | 47° |
| 2026-04-25 10:17 | 38.63588 | -86.11034 | 33002 ft | 469 kts | 47° |
| 2026-04-25 10:17 | 38.68042 | -86.04971 | 33002 ft | 469 kts | 47° |
| 2026-04-25 10:18 | 38.72506 | -85.98883 | 33002 ft | 470 kts | 47° |
| 2026-04-25 10:18 | 38.76958 | -85.92801 | 33002 ft | 470 kts | 47° |
| 2026-04-25 10:19 | 38.81405 | -85.86712 | 33002 ft | 470 kts | 47° |
| 2026-04-25 10:19 | 38.85873 | -85.80583 | 33002 ft | 470 kts | 47° |
| 2026-04-25 10:20 | 38.90309 | -85.74486 | 33002 ft | 470 kts | 47° |
| 2026-04-25 10:20 | 38.94752 | -85.68366 | 33002 ft | 470 kts | 47° |
| 2026-04-25 10:21 | 38.99189 | -85.62244 | 33002 ft | 470 kts | 47° |
| 2026-04-25 10:21 | 39.03608 | -85.56135 | 33002 ft | 470 kts | 47° |
| 2026-04-25 10:22 | 39.08047 | -85.49985 | 33002 ft | 470 kts | 47° |
| 2026-04-25 10:22 | 39.12490 | -85.43817 | 33002 ft | 470 kts | 47° |
| 2026-04-25 10:23 | 39.16902 | -85.37682 | 32999 ft | 470 kts | 47° |
| 2026-04-25 10:23 | 39.21344 | -85.31491 | 32997 ft | 470 kts | 47° |
| 2026-04-25 10:24 | 39.25753 | -85.25333 | 32998 ft | 470 kts | 47° |
| 2026-04-25 10:24 | 39.30182 | -85.19137 | 32998 ft | 470 kts | 47° |
| 2026-04-25 10:25 | 39.34585 | -85.12965 | 32998 ft | 470 kts | 47° |
| 2026-04-25 10:25 | 39.39004 | -85.06757 | 32998 ft | 470 kts | 47° |
| 2026-04-25 10:26 | 39.43408 | -85.00558 | 32999 ft | 470 kts | 47° |
| 2026-04-25 10:26 | 39.47819 | -84.94335 | 32999 ft | 470 kts | 47° |
| 2026-04-25 10:27 | 39.52228 | -84.88104 | 32999 ft | 470 kts | 47° |
| 2026-04-25 10:27 | 39.56662 | -84.81825 | 32999 ft | 470 kts | 47° |
| 2026-04-25 10:28 | 39.61056 | -84.75590 | 33000 ft | 470 kts | 47° |
| 2026-04-25 10:28 | 39.65471 | -84.69311 | 33000 ft | 470 kts | 47° |
| 2026-04-25 10:29 | 39.69849 | -84.63073 | 33002 ft | 470 kts | 47° |
| 2026-04-25 10:29 | 39.74260 | -84.56776 | 33002 ft | 470 kts | 47° |
| 2026-04-25 10:30 | 39.78645 | -84.50501 | 33001 ft | 470 kts | 47° |
| 2026-04-25 10:30 | 39.83046 | -84.44192 | 33000 ft | 470 kts | 47° |
| 2026-04-25 10:31 | 39.87421 | -84.37908 | 33000 ft | 470 kts | 47° |
| 2026-04-25 10:31 | 39.91811 | -84.31589 | 33000 ft | 470 kts | 48° |
| 2026-04-25 10:32 | 39.96352 | -84.25428 | 32999 ft | 470 kts | 44° |
| 2026-04-25 10:32 | 40.01051 | -84.19541 | 32998 ft | 470 kts | 44° |
| 2026-04-25 10:33 | 40.05732 | -84.13654 | 32997 ft | 470 kts | 44° |
| 2026-04-25 10:33 | 40.10424 | -84.07699 | 32997 ft | 470 kts | 44° |
| 2026-04-25 10:34 | 40.15098 | -84.01760 | 32998 ft | 471 kts | 44° |
| 2026-04-25 10:34 | 40.19768 | -83.95817 | 32999 ft | 471 kts | 44° |
| 2026-04-25 10:35 | 40.24465 | -83.89828 | 32999 ft | 471 kts | 44° |
| 2026-04-25 10:35 | 40.29099 | -83.83905 | 33000 ft | 471 kts | 44° |
| 2026-04-25 10:36 | 40.33672 | -83.78050 | 33001 ft | 470 kts | 44° |
| 2026-04-25 10:36 | 40.38353 | -83.72044 | 33000 ft | 471 kts | 44° |
| 2026-04-25 10:37 | 40.43026 | -83.66036 | 32999 ft | 471 kts | 44° |
| 2026-04-25 10:37 | 40.47709 | -83.60000 | 32997 ft | 471 kts | 44° |
| 2026-04-25 10:38 | 40.52369 | -83.53927 | 32998 ft | 471 kts | 44° |
| 2026-04-25 10:38 | 40.57046 | -83.47868 | 32997 ft | 471 kts | 44° |
| 2026-04-25 10:39 | 40.61698 | -83.41843 | 32998 ft | 471 kts | 44° |
| 2026-04-25 10:39 | 40.66362 | -83.35783 | 32998 ft | 471 kts | 44° |
| 2026-04-25 10:40 | 40.70879 | -83.29620 | 32999 ft | 470 kts | 50° |
| 2026-04-25 10:40 | 40.74893 | -83.22784 | 32999 ft | 471 kts | 53° |
| 2026-04-25 10:41 | 40.78837 | -83.15938 | 32998 ft | 471 kts | 52° |
| 2026-04-25 10:41 | 40.82855 | -83.09108 | 32998 ft | 471 kts | 52° |
| 2026-04-25 10:42 | 40.86838 | -83.02319 | 32997 ft | 471 kts | 52° |
| 2026-04-25 10:42 | 40.90835 | -82.95478 | 32997 ft | 471 kts | 52° |
| 2026-04-25 10:43 | 40.94827 | -82.88632 | 32997 ft | 471 kts | 52° |
| 2026-04-25 10:43 | 40.98807 | -82.81792 | 32997 ft | 471 kts | 52° |
| 2026-04-25 10:44 | 41.02810 | -82.74896 | 32999 ft | 471 kts | 52° |
| 2026-04-25 10:44 | 41.06775 | -82.68053 | 33009 ft | 471 kts | 52° |
| 2026-04-25 10:45 | 41.10738 | -82.61195 | 33000 ft | 471 kts | 52° |
| 2026-04-25 10:45 | 41.14625 | -82.54156 | 32998 ft | 471 kts | 58° |
| 2026-04-25 10:46 | 41.17711 | -82.46591 | 32998 ft | 471 kts | 63° |
| 2026-04-25 10:46 | 41.20728 | -82.38885 | 32999 ft | 471 kts | 62° |
| 2026-04-25 10:47 | 41.23837 | -82.31204 | 33001 ft | 471 kts | 62° |
| 2026-04-25 10:47 | 41.26923 | -82.23567 | 33002 ft | 471 kts | 62° |
| 2026-04-25 10:48 | 41.30010 | -82.15881 | 33001 ft | 471 kts | 62° |
| 2026-04-25 10:48 | 41.33085 | -82.08208 | 33000 ft | 471 kts | 62° |
| 2026-04-25 10:49 | 41.35900 | -82.00378 | 32999 ft | 471 kts | 67° |
| 2026-04-25 10:49 | 41.38400 | -81.92359 | 32997 ft | 471 kts | 67° |
| 2026-04-25 10:50 | 41.40946 | -81.84338 | 32998 ft | 471 kts | 66° |
| 2026-04-25 10:50 | 41.43363 | -81.76784 | 33001 ft | 471 kts | 66° |
| 2026-04-25 10:51 | 41.46021 | -81.68433 | 33002 ft | 471 kts | 67° |
| 2026-04-25 10:51 | 41.48578 | -81.60367 | 33001 ft | 471 kts | 67° |
| 2026-04-25 10:52 | 41.51066 | -81.52499 | 33000 ft | 471 kts | 67° |
| 2026-04-25 10:52 | 41.53618 | -81.44404 | 32999 ft | 471 kts | 67° |
| 2026-04-25 10:53 | 41.56148 | -81.36355 | 32998 ft | 472 kts | 67° |
| 2026-04-25 10:53 | 41.58691 | -81.28239 | 32997 ft | 472 kts | 67° |
| 2026-04-25 10:54 | 41.61230 | -81.20112 | 32998 ft | 472 kts | 67° |
| 2026-04-25 10:54 | 41.63739 | -81.12056 | 32997 ft | 472 kts | 67° |
| 2026-04-25 10:55 | 41.66257 | -81.03944 | 32997 ft | 472 kts | 67° |
| 2026-04-25 10:55 | 41.68767 | -80.95836 | 32999 ft | 472 kts | 67° |
| 2026-04-25 10:56 | 41.71263 | -80.87751 | 32999 ft | 472 kts | 67° |
| 2026-04-25 10:56 | 41.73743 | -80.79691 | 33000 ft | 472 kts | 67° |
| 2026-04-25 10:57 | 41.76240 | -80.71550 | 33002 ft | 472 kts | 67° |
| 2026-04-25 10:57 | 41.78719 | -80.63443 | 33001 ft | 472 kts | 67° |
| 2026-04-25 10:58 | 41.80370 | -80.55045 | 33006 ft | 466 kts | 92° |
| 2026-04-25 10:58 | 41.79182 | -80.46554 | 33006 ft | 468 kts | 102° |
| 2026-04-25 10:59 | 41.78067 | -80.37954 | 32995 ft | 470 kts | 97° |
| 2026-04-25 10:59 | 41.77242 | -80.29244 | 32991 ft | 471 kts | 97° |
| 2026-04-25 11:00 | 41.76382 | -80.20568 | 32991 ft | 471 kts | 98° |
| 2026-04-25 11:00 | 41.75492 | -80.11893 | 32991 ft | 471 kts | 98° |
| 2026-04-25 11:01 | 41.74601 | -80.03236 | 32990 ft | 471 kts | 98° |
| 2026-04-25 11:01 | 41.73703 | -79.94555 | 32988 ft | 471 kts | 98° |
| 2026-04-25 11:02 | 41.72798 | -79.85870 | 32989 ft | 471 kts | 98° |
| 2026-04-25 11:02 | 41.71889 | -79.77222 | 32988 ft | 472 kts | 98° |
| 2026-04-25 11:03 | 41.70969 | -79.68531 | 32988 ft | 472 kts | 98° |
| 2026-04-25 11:03 | 41.70047 | -79.59882 | 32988 ft | 472 kts | 98° |
| 2026-04-25 11:04 | 41.69118 | -79.51241 | 32989 ft | 472 kts | 98° |
| 2026-04-25 11:04 | 41.68175 | -79.42522 | 32989 ft | 472 kts | 98° |
| 2026-04-25 11:05 | 41.67232 | -79.33872 | 32989 ft | 472 kts | 98° |
| 2026-04-25 11:05 | 41.66283 | -79.25230 | 32990 ft | 472 kts | 98° |
| 2026-04-25 11:06 | 41.65284 | -79.16569 | 32990 ft | 472 kts | 99° |
| 2026-04-25 11:06 | 41.64282 | -79.07886 | 32991 ft | 472 kts | 98° |
| 2026-04-25 11:07 | 41.63319 | -78.99262 | 32992 ft | 472 kts | 98° |
| 2026-04-25 11:07 | 41.62337 | -78.90543 | 32991 ft | 472 kts | 98° |
| 2026-04-25 11:08 | 41.61357 | -78.81942 | 32992 ft | 472 kts | 98° |
| 2026-04-25 11:08 | 41.60365 | -78.73280 | 32993 ft | 472 kts | 98° |
| 2026-04-25 11:09 | 41.59364 | -78.64600 | 32992 ft | 472 kts | 98° |
| 2026-04-25 11:09 | 41.58360 | -78.55959 | 32992 ft | 472 kts | 98° |
| 2026-04-25 11:10 | 41.57350 | -78.47317 | 32991 ft | 472 kts | 98° |
| 2026-04-25 11:10 | 41.56336 | -78.38705 | 32991 ft | 472 kts | 98° |
| 2026-04-25 11:11 | 41.55306 | -78.30013 | 32992 ft | 472 kts | 99° |
| 2026-04-25 11:11 | 41.54279 | -78.21398 | 32992 ft | 472 kts | 99° |
| 2026-04-25 11:12 | 41.53241 | -78.12756 | 32992 ft | 472 kts | 99° |
| 2026-04-25 11:12 | 41.52188 | -78.04049 | 32992 ft | 472 kts | 99° |
| 2026-04-25 11:13 | 41.51101 | -77.95428 | 32993 ft | 472 kts | 101° |
| 2026-04-25 11:13 | 41.49861 | -77.86887 | 32992 ft | 472 kts | 101° |
| 2026-04-25 11:14 | 41.48629 | -77.78252 | 32992 ft | 472 kts | 100° |
| 2026-04-25 11:14 | 41.47418 | -77.69679 | 32992 ft | 472 kts | 100° |
| 2026-04-25 11:15 | 41.46195 | -77.61098 | 32992 ft | 472 kts | 101° |
| 2026-04-25 11:15 | 41.44965 | -77.52528 | 32916 ft | 474 kts | 101° |
| 2026-04-25 11:15 | 41.44344 | -77.48211 | 32788 ft | 476 kts | 101° |
| 2026-04-25 11:16 | 41.43086 | -77.39513 | 32542 ft | 479 kts | 101° |
| 2026-04-25 11:16 | 41.42459 | -77.35194 | 32418 ft | 480 kts | 101° |
| 2026-04-25 11:16 | 41.41816 | -77.30780 | 32292 ft | 481 kts | 101° |
| 2026-04-25 11:17 | 41.41183 | -77.26446 | 32168 ft | 481 kts | 101° |
| 2026-04-25 11:17 | 41.40547 | -77.22102 | 32045 ft | 482 kts | 101° |
| 2026-04-25 11:17 | 41.39902 | -77.17711 | 31920 ft | 482 kts | 101° |
| 2026-04-25 11:17 | 41.39260 | -77.13351 | 31796 ft | 483 kts | 101° |
| 2026-04-25 11:18 | 41.38612 | -77.08961 | 31502 ft | 487 kts | 101° |
| 2026-04-25 11:18 | 41.37952 | -77.04507 | 31175 ft | 483 kts | 101° |
| 2026-04-25 11:18 | 41.37312 | -77.00198 | 30713 ft | 473 kts | 101° |
| 2026-04-25 11:18 | 41.36684 | -76.95976 | 30204 ft | 466 kts | 101° |
| 2026-04-25 11:19 | 41.36050 | -76.91730 | 29698 ft | 462 kts | 101° |
| 2026-04-25 11:19 | 41.35430 | -76.87585 | 29206 ft | 460 kts | 101° |
| 2026-04-25 11:19 | 41.34806 | -76.83428 | 28611 ft | 460 kts | 101° |
| 2026-04-25 11:19 | 41.34180 | -76.79295 | 27987 ft | 457 kts | 102° |
| 2026-04-25 11:20 | 41.33347 | -76.75205 | 27355 ft | 453 kts | 108° |
| 2026-04-25 11:20 | 41.32318 | -76.71294 | 26733 ft | 449 kts | 110° |
| 2026-04-25 11:20 | 41.31231 | -76.67430 | 26116 ft | 447 kts | 110° |
| 2026-04-25 11:20 | 41.30152 | -76.63552 | 25492 ft | 451 kts | 110° |
| 2026-04-25 11:21 | 41.29089 | -76.59634 | 24868 ft | 452 kts | 109° |
| 2026-04-25 11:21 | 41.28040 | -76.55710 | 24244 ft | 451 kts | 109° |
| 2026-04-25 11:21 | 41.26993 | -76.51788 | 23619 ft | 450 kts | 109° |
| 2026-04-25 11:21 | 41.25944 | -76.47865 | 22993 ft | 449 kts | 109° |
| 2026-04-25 11:22 | 41.24901 | -76.43983 | 22370 ft | 448 kts | 109° |
| 2026-04-25 11:22 | 41.24202 | -76.41383 | 21952 ft | 447 kts | 109° |
| 2026-04-25 11:22 | 41.22820 | -76.36259 | 21126 ft | 445 kts | 109° |
| 2026-04-25 11:22 | 41.21778 | -76.32400 | 20501 ft | 444 kts | 110° |
| 2026-04-25 11:23 | 41.20729 | -76.28522 | 19870 ft | 442 kts | 110° |
| 2026-04-25 11:23 | 41.19708 | -76.24754 | 19237 ft | 432 kts | 110° |
| 2026-04-25 11:23 | 41.18702 | -76.21062 | 18608 ft | 421 kts | 110° |
| 2026-04-25 11:23 | 41.17706 | -76.17442 | 18053 ft | 409 kts | 110° |
| 2026-04-25 11:24 | 41.16757 | -76.13989 | 17937 ft | 395 kts | 110° |
| 2026-04-25 11:24 | 41.15819 | -76.10558 | 17957 ft | 398 kts | 110° |
| 2026-04-25 11:24 | 41.14881 | -76.07124 | 17967 ft | 393 kts | 110° |
| 2026-04-25 11:24 | 41.13946 | -76.03712 | 17967 ft | 389 kts | 110° |
| 2026-04-25 11:25 | 41.13021 | -76.00343 | 17888 ft | 386 kts | 110° |
| 2026-04-25 11:25 | 41.12113 | -75.97037 | 17468 ft | 383 kts | 110° |
| 2026-04-25 11:25 | 41.11199 | -75.93708 | 16936 ft | 382 kts | 110° |
| 2026-04-25 11:25 | 41.10291 | -75.90405 | 16452 ft | 380 kts | 110° |
| 2026-04-25 11:26 | 41.09399 | -75.87163 | 15998 ft | 377 kts | 110° |
| 2026-04-25 11:26 | 41.08508 | -75.83928 | 15737 ft | 363 kts | 110° |
| 2026-04-25 11:26 | 41.07638 | -75.80776 | 15057 ft | 368 kts | 110° |
| 2026-04-25 11:26 | 41.06759 | -75.77590 | 14494 ft | 369 kts | 110° |
| 2026-04-25 11:27 | 41.05880 | -75.74416 | 14012 ft | 367 kts | 110° |
| 2026-04-25 11:27 | 41.05005 | -75.71255 | 13556 ft | 364 kts | 110° |
| 2026-04-25 11:27 | 41.04140 | -75.68134 | 13100 ft | 361 kts | 110° |
| 2026-04-25 11:27 | 41.03563 | -75.66055 | 12791 ft | 359 kts | 110° |
| 2026-04-25 11:28 | 41.02423 | -75.61952 | 12174 ft | 356 kts | 110° |
| 2026-04-25 11:28 | 41.01566 | -75.58877 | 11708 ft | 354 kts | 110° |
| 2026-04-25 11:28 | 41.00721 | -75.55879 | 11250 ft | 352 kts | 110° |
| 2026-04-25 11:28 | 40.99862 | -75.52824 | 10784 ft | 349 kts | 110° |
| 2026-04-25 11:29 | 40.99023 | -75.49834 | 10326 ft | 347 kts | 110° |
| 2026-04-25 11:29 | 40.98193 | -75.46867 | 10187 ft | 336 kts | 110° |
| 2026-04-25 11:29 | 40.97387 | -75.43987 | 10206 ft | 338 kts | 110° |
| 2026-04-25 11:29 | 40.96567 | -75.41058 | 10220 ft | 344 kts | 110° |
| 2026-04-25 11:30 | 40.95730 | -75.38071 | 10217 ft | 345 kts | 110° |
| 2026-04-25 11:30 | 40.94894 | -75.35091 | 10218 ft | 346 kts | 110° |
| 2026-04-25 11:30 | 40.94057 | -75.32113 | 10218 ft | 346 kts | 110° |
| 2026-04-25 11:30 | 40.93214 | -75.29118 | 10218 ft | 346 kts | 110° |
| 2026-04-25 11:31 | 40.92379 | -75.26153 | 10218 ft | 346 kts | 110° |
| 2026-04-25 11:31 | 40.91544 | -75.23190 | 10218 ft | 346 kts | 110° |
| 2026-04-25 11:31 | 40.90700 | -75.20200 | 10216 ft | 343 kts | 110° |
| 2026-04-25 11:31 | 40.89891 | -75.17337 | 10207 ft | 327 kts | 110° |
| 2026-04-25 11:32 | 40.89105 | -75.14558 | 10133 ft | 314 kts | 110° |
| 2026-04-25 11:32 | 40.88350 | -75.11897 | 10000 ft | 303 kts | 110° |
| 2026-04-25 11:32 | 40.87624 | -75.09351 | 9745 ft | 291 kts | 110° |
| 2026-04-25 11:32 | 40.86925 | -75.06894 | 9306 ft | 286 kts | 110° |
| 2026-04-25 11:33 | 40.86245 | -75.04497 | 8830 ft | 284 kts | 110° |
| 2026-04-25 11:33 | 40.85538 | -75.01995 | 8312 ft | 282 kts | 110° |
| 2026-04-25 11:33 | 40.84858 | -74.99590 | 7809 ft | 280 kts | 110° |
| 2026-04-25 11:33 | 40.84184 | -74.97205 | 7307 ft | 278 kts | 110° |
| 2026-04-25 11:34 | 40.83516 | -74.94843 | 6946 ft | 270 kts | 110° |
| 2026-04-25 11:34 | 40.82860 | -74.92527 | 6929 ft | 270 kts | 110° |
| 2026-04-25 11:34 | 40.82018 | -74.90285 | 6927 ft | 274 kts | 122° |
| 2026-04-25 11:34 | 40.80953 | -74.88178 | 6924 ft | 276 kts | 124° |
| 2026-04-25 11:35 | 40.79889 | -74.86097 | 6921 ft | 276 kts | 123° |
| 2026-04-25 11:35 | 40.78834 | -74.83984 | 6919 ft | 276 kts | 123° |
| 2026-04-25 11:35 | 40.77786 | -74.81844 | 6919 ft | 276 kts | 122° |
| 2026-04-25 11:35 | 40.76752 | -74.79713 | 6918 ft | 276 kts | 122° |
| 2026-04-25 11:36 | 40.75726 | -74.77586 | 6897 ft | 276 kts | 122° |
| 2026-04-25 11:36 | 40.74699 | -74.75453 | 6613 ft | 274 kts | 122° |
| 2026-04-25 11:36 | 40.73678 | -74.73330 | 6218 ft | 273 kts | 122° |
| 2026-04-25 11:36 | 40.72668 | -74.71230 | 5854 ft | 272 kts | 122° |
| 2026-04-25 11:37 | 40.71653 | -74.69120 | 5494 ft | 271 kts | 122° |
| 2026-04-25 11:37 | 40.70661 | -74.67059 | 5144 ft | 269 kts | 122° |
| 2026-04-25 11:37 | 40.69690 | -74.65041 | 5197 ft | 256 kts | 122° |
| 2026-04-25 11:37 | 40.68718 | -74.63025 | 5243 ft | 265 kts | 122° |
| 2026-04-25 11:38 | 40.67723 | -74.60961 | 5251 ft | 268 kts | 122° |
| 2026-04-25 11:38 | 40.66725 | -74.58893 | 4991 ft | 267 kts | 122° |
| 2026-04-25 11:38 | 40.65732 | -74.56835 | 4595 ft | 267 kts | 122° |
| 2026-04-25 11:38 | 40.64731 | -74.54762 | 4230 ft | 266 kts | 122° |
| 2026-04-25 11:39 | 40.63747 | -74.52728 | 3879 ft | 264 kts | 122° |
| 2026-04-25 11:39 | 40.62758 | -74.50681 | 3526 ft | 263 kts | 122° |
| 2026-04-25 11:39 | 40.61787 | -74.48676 | 3179 ft | 262 kts | 122° |
| 2026-04-25 11:39 | 40.60811 | -74.46662 | 2840 ft | 260 kts | 122° |
| 2026-04-25 11:40 | 40.59843 | -74.44665 | 2767 ft | 255 kts | 122° |
| 2026-04-25 11:40 | 40.58879 | -74.42677 | 2768 ft | 259 kts | 122° |
| 2026-04-25 11:40 | 40.57922 | -74.40704 | 2764 ft | 257 kts | 122° |
| 2026-04-25 11:40 | 40.57134 | -74.38646 | 2753 ft | 239 kts | 103° |
| 2026-04-25 11:41 | 40.56522 | -74.36724 | 2780 ft | 229 kts | 124° |
| 2026-04-25 11:41 | 40.55576 | -74.35078 | 2824 ft | 217 kts | 127° |
| 2026-04-25 11:41 | 40.54687 | -74.33516 | 2798 ft | 216 kts | 126° |
| 2026-04-25 11:41 | 40.53822 | -74.31917 | 2776 ft | 214 kts | 125° |
| 2026-04-25 11:42 | 40.53024 | -74.30248 | 2740 ft | 214 kts | 111° |
| 2026-04-25 11:42 | 40.52954 | -74.28397 | 2748 ft | 212 kts | 78° |
| 2026-04-25 11:42 | 40.53499 | -74.26556 | 2727 ft | 214 kts | 52° |
| 2026-04-25 11:42 | 40.54689 | -74.25497 | 2784 ft | 206 kts | 25° |
| 2026-04-25 11:43 | 40.55986 | -74.24776 | 2605 ft | 200 kts | 22° |
| 2026-04-25 11:43 | 40.57209 | -74.24078 | 2347 ft | 191 kts | 24° |
| 2026-04-25 11:43 | 40.58434 | -74.23330 | 2100 ft | 191 kts | 25° |
| 2026-04-25 11:43 | 40.59582 | -74.22607 | 1872 ft | 171 kts | 26° |
| 2026-04-25 11:44 | 40.60609 | -74.21957 | 1627 ft | 161 kts | 26° |
| 2026-04-25 11:44 | 40.61601 | -74.21329 | 1414 ft | 156 kts | 26° |
| 2026-04-25 11:44 | 40.62577 | -74.20710 | 1210 ft | 153 kts | 26° |
| 2026-04-25 11:44 | 40.63510 | -74.20119 | 1004 ft | 146 kts | 26° |
| 2026-04-25 11:45 | 40.64407 | -74.19550 | 815 ft | 141 kts | 26° |
| 2026-04-25 11:45 | 40.65279 | -74.18996 | 637 ft | 139 kts | 26° |
| 2026-04-25 11:45 | 40.66140 | -74.18451 | 460 ft | 137 kts | 26° |
| 2026-04-25 11:45 | 40.66980 | -74.17913 | 233 ft | 134 kts | 26° |
| 2026-04-25 11:46 | 40.67811 | -74.17379 | 65 ft | 131 kts | 25° |
| 2026-04-25 11:46 | 40.68624 | -74.16872 | 21 ft | 121 kts | 25° |
| 2026-04-25 11:46 | 40.69083 | -74.16599 | 20 ft | 19 kts | 3° |
| 2026-04-25 11:46 | 40.69146 | -74.16593 | 20 ft | 7 kts | 3° |
| 2026-04-25 11:47 | 40.69223 | -74.16592 | 20 ft | 9 kts | 1° |
| 2026-04-25 11:47 | 40.69260 | -74.16592 | 20 ft | 4 kts | 358° |
| 2026-04-25 11:47 | 40.69295 | -74.16595 | 20 ft | 5 kts | 356° |
| 2026-04-25 11:47 | 40.69313 | -74.16597 | 20 ft | 0 kts | 355° |
| 2026-04-25 11:48 | 40.69355 | -74.16602 | 20 ft | 6 kts | 355° |
| 2026-04-25 11:48 | 40.69385 | -74.16607 | 20 ft | 5 kts | 346° |
| 2026-04-25 11:48 | 40.69428 | -74.16686 | 20 ft | 13 kts | 294° |
| 2026-04-25 11:48 | 40.69448 | -74.16750 | 20 ft | 11 kts | 291° |
| 2026-04-25 11:49 | 40.69471 | -74.16814 | 20 ft | 7 kts | 296° |
| 2026-04-25 11:49 | 40.69483 | -74.16846 | 20 ft | 7 kts | 297° |
| 2026-04-25 11:49 | 40.69503 | -74.16900 | 20 ft | 2 kts | 296° |
| 2026-04-25 11:49 | 40.69547 | -74.16941 | 20 ft | 9 kts | 9° |
| 2026-04-25 11:50 | 40.69584 | -74.16924 | 20 ft | 5 kts | 26° |
| 2026-04-25 11:50 | 40.69631 | -74.16891 | 20 ft | 10 kts | 27° |
| 2026-04-25 11:50 | 40.69728 | -74.16833 | 20 ft | 11 kts | 22° |
| 2026-04-25 11:50 | 40.69783 | -74.16800 | 20 ft | 5 kts | 31° |
| 2026-04-25 11:51 | 40.69830 | -74.16777 | 20 ft | 7 kts | 12° |
| 2026-04-25 11:51 | 40.69891 | -74.16766 | 20 ft | 12 kts | 5° |
| 2026-04-25 11:51 | 40.70000 | -74.16755 | 20 ft | 14 kts | 7° |
| 2026-04-25 11:51 | 40.70085 | -74.16745 | 20 ft | 10 kts | 3° |
| 2026-04-25 11:52 | 40.70121 | -74.16740 | 20 ft | 10 kts | 8° |
| 2026-04-25 11:52 | 40.70205 | -74.16728 | 20 ft | 15 kts | 5° |
| 2026-04-25 11:52 | 40.70290 | -74.16701 | 20 ft | 11 kts | 32° |
| 2026-04-25 11:52 | 40.70359 | -74.16671 | 20 ft | 10 kts | 11° |
| 2026-04-25 11:53 | 40.70434 | -74.16627 | 20 ft | 6 kts | 56° |
| 2026-04-25 11:53 | 40.70439 | -74.16574 | 20 ft | 4 kts | 91° |
| 2026-04-25 11:53 | 40.70439 | -74.16573 | 20 ft | 0 kts | 91° |